Friday, November 17, 2017, 9:15 PM GMT
Back to Local

CYGP, Gaspe, Que.

Location: , , Canada Lat: 48.767
Local Time: 9:15 PM GMT (21:15 GMT) Lon: -64.483
Time Zone: GMT Elev: 108 ft

Show me the last for .
Show Coded

Time T Td Feel RH Dir Speed Gust Alt SLP Vis Weather Sky Remarks
2017-11-17 21:00 34 30 21 86 360° 15 25 29.35 29.36 0 -SN OVC007 None
2017-11-17 20:30 34 30 20 86 350° 15 29 29.36 29.37 0 -SN OVC007 None
2017-11-17 20:00 34 30 20 86 360° 12 29 29.36 29.37 0 SN VV004 None
2017-11-17 19:00 34 32 22 93 360° 12 21 29.36 29.37 0 +SN VV004 None
2017-11-17 18:21 34 32 23 93 350° 10 18 29.36 29.37 0 SN VV004 None
2017-11-17 18:00 34 32 27 93 360° 8 - 29.37 29.38 0 SN OVC006 None
2017-11-17 17:00 34 32 21 93 350° 12 24 29.38 29.39 0 -SN BKN006 OVC010 Pressure falling rapidly
2017-11-17 16:46 34 32 23 93 360° 12 17 29.40 29.41 1 -SN OVC006 Pressure falling rapidly
2017-11-17 16:18 34 32 27 93 40° 8 - 29.42 29.43 0 -SN OVC007 Pressure falling rapidly
2017-11-17 16:00 32 32 29 100 30° 3 - 29.44 29.45 0 -SN OVC006 None
2017-11-17 15:36 32 32 25 100 60° 8 - 29.46 29.47 0 -SN OVC006 None
2017-11-17 15:00 32 32 25 100 80° 8 - 29.49 29.50 0 -SN OVC009 None
2017-11-17 14:44 34 32 27 93 70° 8 - 29.49 29.50 0 -SN BR OVC010 None
2017-11-17 14:22 34 32 26 93 70° 10 - 29.50 29.51 1 -SN BR OVC008 None
2017-11-17 14:00 34 32 27 93 80° 8 - 29.52 29.52 1 -RA BR BKN008 None
2017-11-17 13:00 36 34 28 93 60° 10 - 29.54 29.55 3 -RA BR OVC008 None
2017-11-17 12:37 34 32 26 93 70° 9 - 29.55 29.56 3 -SN BR OVC006 None
2017-11-17 12:00 36 34 24 93 80° 14 24 29.57 29.57 3 -RA BR OVC007 None
2017-11-17 11:46 36 36 24 100 80° 14 23 29.58 29.59 3 -RA BR OVC006 None
2017-11-17 11:00 37 36 28 93 80° 16 - 29.58 29.59 5 RA BR OVC006 None
2017-11-17 10:48 37 36 28 93 80° 16 - 29.58 29.59 5 RA BR OVC005 None
2017-11-17 10:00 37 37 27 100 90° 14 22 29.60 29.61 5 -RA BR OVC003 None
2017-11-17 09:00 37 37 29 100 100° 15 - 29.63 29.64 5 -RA BR OVC003 None
2017-11-17 08:00 37 37 31 100 90° 8 - 29.67 29.68 5 -RA BR OVC005 None
2017-11-17 07:00 37 37 31 100 90° 9 - 29.70 29.71 5 -RA BR OVC005 None
2017-11-17 06:00 37 36 33 93 80° 6 - 29.73 29.74 5 -RA BR BKN005 Pressure falling rapidly
2017-11-17 05:00 37 36 33 93 80° 6 - 29.78 29.78 5 -RA BR OVC005 None
2017-11-17 04:00 37 36 32 93 80° 7 - 29.80 29.81 5 -RA BR OVC005 None
2017-11-17 03:25 37 36 33 93 100° 6 - 29.81 29.82 5 -RA BR BKN008 OVC030 None
2017-11-17 03:00 37 36 31 93 100° 8 - 29.82 29.83 5 -RA BR FEW008 SCT030 OVC060 None
2017-11-17 02:49 37 36 33 93 100° 6 - 29.82 29.83 5 -RA BR FEW008 SCT012 BKN030 OVC060 None
2017-11-17 02:00 37 36 31 93 110° 8 - 29.86 29.87 5 -RA BR BKN010 OVC030 None
2017-11-17 01:00 37 34 30 86 70° 10 - 29.88 29.89 5 -RA BR OVC010 None
2017-11-17 00:00 37 34 30 86 70° 12 - 29.89 29.90 5 -RA BR OVC012 None
2017-11-16 23:00 36 34 28 93 90° 12 - 29.92 29.93 5 -RA BR OVC012 None
2017-11-16 22:00 36 32 29 86 90° 9 - 29.93 29.94 5 -RA BR FEW008 OVC012 None
2017-11-16 21:27 36 32 29 86 90° 8 - 29.94 29.95 4 -RA BR SCT008 OVC012 None

Support USWX by starting your Amazon purchase here.